Time;durP1;ratioP1;P1;durP2;ratioP2;P2;SDS_P1;SDS_P2;PMS_P1;PMS_P2;Temp;Humidity;BMP_temperature;BMP_pressure;BME280_temperature;BME280_humidity;BME280_pressure;Samples;Min_cycle;Max_cycle;Signal;HPM_P1;HPM_P2
2022/01/16 00:00:19;;;;;;;18.47;13.23;;;4.30;44.60;;;;;;10420459;28;20621;-69
2022/01/16 00:05:25;;;;;;;14.53;11.53;;;4.30;44.70;;;;;;10428231;28;20233;-67
2022/01/16 00:10:28;;;;;;;15.40;12.23;;;4.30;44.70;;;;;;10422023;28;20237;-67
2022/01/16 00:15:31;;;;;;;15.00;12.33;;;4.20;44.50;;;;;;10430609;28;20221;-67
2022/01/16 00:20:36;;;;;;;14.97;11.80;;;4.10;44.70;;;;;;10426943;28;20229;-68
2022/01/16 00:25:39;;;;;;;12.97;11.10;;;4.00;45.00;;;;;;10424362;28;20235;-67
2022/01/16 00:30:42;;;;;;;13.63;10.43;;;4.00;44.90;;;;;;10430031;28;20239;-67
2022/01/16 00:35:47;;;;;;;14.10;11.20;;;4.00;45.20;;;;;;10424611;28;20228;-67
2022/01/16 00:40:50;;;;;;;15.37;12.20;;;4.10;45.10;;;;;;10428799;28;20600;-67
2022/01/16 00:45:53;;;;;;;15.87;11.97;;;4.10;45.00;;;;;;10422430;28;20249;-67
2022/01/16 00:50:58;;;;;;;17.00;13.23;;;4.10;45.00;;;;;;10424888;28;20225;-67
2022/01/16 00:56:01;;;;;;;19.00;13.10;;;4.20;45.00;;;;;;10428834;28;20220;-67
2022/01/16 01:01:05;;;;;;;16.90;13.30;;;4.20;45.00;;;;;;10421042;28;20729;-67
2022/01/16 01:06:09;;;;;;;15.40;12.23;;;4.20;45.00;;;;;;10425337;28;20721;-67
2022/01/16 01:11:16;;;;;;;15.23;11.73;;;4.10;45.20;;;;;;10426234;28;20695;-67
2022/01/16 01:16:19;;;;;;;14.90;12.47;;;4.20;45.00;;;;;;10420160;28;20327;-67
2022/01/16 01:21:28;;;;;;;14.70;12.00;;;4.10;45.00;;;;;;10418144;28;20284;-67
2022/01/16 01:26:37;;;;;;;17.17;13.03;;;4.10;45.00;;;;;;10426705;28;20239;-67
2022/01/16 01:31:40;;;;;;;17.07;12.70;;;4.10;45.20;;;;;;10422479;28;20233;-67
2022/01/16 01:36:49;;;;;;;18.47;12.30;;;4.10;44.90;;;;;;10423850;28;20248;-67
2022/01/16 01:42:03;;;;;;;16.90;12.47;;;4.10;45.00;;;;;;10427307;28;20236;-67
2022/01/16 01:52:29;;;;;;;17.33;12.80;;;4.10;45.00;;;;;;10425375;28;20229;-67
2022/01/16 01:57:33;;;;;;;18.70;13.80;;;4.10;45.20;;;;;;10424345;28;20229;-68
2022/01/16 02:02:47;;;;;;;18.23;12.67;;;4.00;45.10;;;;;;10426532;28;20237;-68
2022/01/16 02:07:52;;;;;;;20.57;13.93;;;4.00;45.20;;;;;;10518954;22;20235;-67
2022/01/16 02:13:00;;;;;;;19.37;13.03;;;4.10;45.30;;;;;;10462014;28;20700;-67
2022/01/16 02:29:15;;;;;;;16.83;13.23;;;4.00;45.30;;;;;;10459311;28;20228;-67
2022/01/16 02:34:33;;;;;;;16.77;13.53;;;3.90;45.30;;;;;;10461726;28;20224;-67
2022/01/16 02:39:40;;;;;;;15.53;12.73;;;3.90;45.20;;;;;;10460008;28;20224;-67
2022/01/16 02:44:46;;;;;;;19.53;14.27;;;3.90;45.60;;;;;;10459138;28;20433;-67
2022/01/16 02:49:50;;;;;;;17.57;13.47;;;3.90;45.30;;;;;;10456051;28;20316;-67
2022/01/16 02:54:55;;;;;;;17.27;12.53;;;3.90;45.20;;;;;;10456140;28;20220;-67
2022/01/16 02:59:58;;;;;;;14.93;11.87;;;3.80;45.30;;;;;;10454624;28;20225;-67
2022/01/16 03:05:02;;;;;;;16.07;11.80;;;3.70;45.20;;;;;;10454545;28;20688;-67
2022/01/16 03:10:28;;;;;;;14.73;11.80;;;3.70;45.30;;;;;;10455933;28;20253;-68
2022/01/16 03:15:32;;;;;;;18.40;12.13;;;3.70;45.60;;;;;;10460601;28;20243;-68
2022/01/16 03:25:59;;;;;;;16.07;11.63;;;3.80;45.40;;;;;;10468204;28;20239;-68
2022/01/16 03:31:02;;;;;;;16.60;12.17;;;3.70;45.20;;;;;;10504733;28;20223;-68
2022/01/16 03:36:06;;;;;;;16.13;12.27;;;3.60;45.00;;;;;;10504986;28;20220;-68
2022/01/16 03:41:10;;;;;;;15.93;11.60;;;3.60;45.20;;;;;;10505867;28;20587;-68
2022/01/16 03:46:13;;;;;;;16.20;11.60;;;3.50;45.40;;;;;;10505681;28;20250;-67
2022/01/16 03:51:16;;;;;;;15.57;11.53;;;3.50;45.40;;;;;;10503496;28;20254;-67
2022/01/16 03:56:21;;;;;;;13.97;10.33;;;3.50;45.60;;;;;;10503377;28;20581;-67
2022/01/16 04:01:25;;;;;;;14.23;10.90;;;3.60;45.60;;;;;;10508311;28;20236;-67
2022/01/16 04:06:28;;;;;;;14.77;10.93;;;3.60;45.30;;;;;;10502884;28;20713;-67
2022/01/16 04:11:33;;;;;;;14.03;11.67;;;3.60;46.00;;;;;;10500233;28;20227;-67
2022/01/16 04:16:38;;;;;;;15.40;11.70;;;3.60;45.50;;;;;;10503613;28;20224;-67
2022/01/16 04:21:41;;;;;;;13.57;10.60;;;3.70;46.40;;;;;;10499478;28;20307;-67
2022/01/16 04:26:46;;;;;;;15.07;11.27;;;3.80;45.80;;;;;;10506056;28;20235;-67
2022/01/16 04:31:49;;;;;;;14.63;11.30;;;3.80;45.60;;;;;;10501042;28;20230;-68
2022/01/16 04:36:52;;;;;;;15.50;11.57;;;3.80;45.30;;;;;;10503010;28;20228;-67
2022/01/16 04:47:17;;;;;;;14.80;10.43;;;3.90;45.60;;;;;;10499981;28;20231;-67
2022/01/16 04:52:20;;;;;;;15.77;10.73;;;4.00;45.40;;;;;;10505347;28;20651;-68
2022/01/16 04:57:24;;;;;;;14.37;10.57;;;4.00;45.30;;;;;;10498744;28;20240;-68
2022/01/16 05:02:27;;;;;;;17.07;12.00;;;4.00;45.40;;;;;;10497865;28;20310;-68
2022/01/16 05:07:31;;;;;;;15.43;11.07;;;3.90;45.40;;;;;;10505486;28;20235;-68
2022/01/16 05:12:38;;;;;;;16.70;11.73;;;4.00;45.50;;;;;;10499696;28;20224;-68
2022/01/16 05:17:41;;;;;;;17.97;11.63;;;4.10;45.50;;;;;;10500374;28;20235;-69
2022/01/16 05:22:44;;;;;;;17.80;12.73;;;4.10;45.20;;;;;;10500616;28;20238;-69
2022/01/16 05:27:49;;;;;;;19.53;13.93;;;4.00;45.40;;;;;;10505782;28;20234;-69
2022/01/16 05:32:52;;;;;;;20.23;14.40;;;4.00;45.50;;;;;;10502530;28;20216;-68
2022/01/16 05:37:55;;;;;;;19.43;13.57;;;3.90;45.40;;;;;;10502268;28;20239;-69
2022/01/16 05:43:01;;;;;;;20.00;14.30;;;3.90;45.40;;;;;;10503100;28;20731;-68
2022/01/16 05:48:05;;;;;;;19.17;13.77;;;3.90;45.60;;;;;;10502348;28;20375;-69
2022/01/16 05:53:08;;;;;;;22.97;14.90;;;3.90;45.40;;;;;;10501990;28;20226;-67
2022/01/16 05:58:15;;;;;;;23.77;16.07;;;4.10;45.60;;;;;;10500423;28;20235;-68
2022/01/16 06:03:19;;;;;;;20.77;15.00;;;3.90;45.60;;;;;;10498749;28;20236;-68
2022/01/16 06:08:22;;;;;;;20.07;14.43;;;4.00;45.60;;;;;;10496799;28;20608;-67
2022/01/16 06:13:27;;;;;;;19.87;13.87;;;3.90;45.40;;;;;;10500118;28;20635;-68
2022/01/16 06:18:30;;;;;;;20.80;15.50;;;3.80;45.50;;;;;;10502363;28;20228;-68
2022/01/16 06:23:33;;;;;;;19.40;14.47;;;3.80;45.60;;;;;;10500978;28;20590;-67
2022/01/16 06:28:37;;;;;;;19.37;14.13;;;3.70;45.60;;;;;;10503342;28;20227;-68
2022/01/16 06:33:40;;;;;;;19.20;14.50;;;3.80;45.90;;;;;;10499763;28;20227;-67
2022/01/16 06:38:44;;;;;;;18.63;14.17;;;3.70;45.70;;;;;;10500513;28;20227;-67
2022/01/16 06:43:48;;;;;;;19.37;14.23;;;3.80;45.90;;;;;;10504350;28;20719;-68
2022/01/16 06:48:52;;;;;;;22.53;15.47;;;3.80;45.80;;;;;;10503457;28;20224;-68
2022/01/16 06:53:56;;;;;;;22.03;15.47;;;3.80;45.60;;;;;;10505903;28;20228;-67
2022/01/16 06:59:01;;;;;;;23.63;16.13;;;3.80;45.80;;;;;;10505455;28;20606;-69
2022/01/16 07:04:23;;;;;;;23.67;16.60;;;3.90;45.90;;;;;;10506351;28;20223;-69
2022/01/16 07:09:26;;;;;;;27.83;18.70;;;3.90;45.90;;;;;;10506313;28;20703;-69
2022/01/16 07:14:31;;;;;;;22.17;16.50;;;3.90;45.90;;;;;;10500652;28;20221;-69
2022/01/16 07:19:34;;;;;;;25.07;17.77;;;3.90;46.10;;;;;;10505550;28;20220;-69
2022/01/16 07:24:37;;;;;;;25.67;18.03;;;3.90;45.90;;;;;;10505653;28;20228;-69
2022/01/16 07:29:42;;;;;;;26.43;18.17;;;3.90;46.00;;;;;;10501337;28;20715;-69
2022/01/16 07:34:46;;;;;;;24.83;18.20;;;4.10;46.30;;;;;;10503114;28;20234;-69
2022/01/16 07:39:50;;;;;;;26.30;18.20;;;4.00;46.00;;;;;;10505801;28;20224;-69
2022/01/16 07:44:54;;;;;;;27.30;19.40;;;4.10;45.90;;;;;;10504191;28;20231;-68
2022/01/16 07:49:57;;;;;;;28.63;19.33;;;4.10;46.20;;;;;;10505298;28;20231;-67
2022/01/16 07:55:22;;;;;;;28.53;19.87;;;4.20;46.70;;;;;;10503810;28;20229;-69
2022/01/16 08:00:28;;;;;;;28.30;21.00;;;4.20;46.00;;;;;;10509205;28;20232;-69
2022/01/16 08:05:32;;;;;;;27.07;20.43;;;4.20;46.00;;;;;;10500780;28;20216;-69
2022/01/16 08:10:35;;;;;;;26.67;19.33;;;4.20;46.00;;;;;;10507374;28;20230;-69
2022/01/16 08:15:39;;;;;;;26.27;19.03;;;4.20;45.80;;;;;;10506109;28;20584;-69
2022/01/16 08:20:43;;;;;;;26.27;20.40;;;4.30;45.90;;;;;;10507205;28;20582;-69
2022/01/16 08:25:46;;;;;;;26.60;20.90;;;4.10;45.40;;;;;;10504872;28;20228;-69
2022/01/16 08:30:50;;;;;;;25.50;20.43;;;4.30;45.50;;;;;;10507446;28;20235;-69
2022/01/16 08:35:54;;;;;;;28.57;21.03;;;4.50;45.90;;;;;;10504094;28;20221;-69
2022/01/16 08:40:57;;;;;;;28.30;21.37;;;4.30;45.80;;;;;;10506488;28;20229;-69
2022/01/16 08:46:02;;;;;;;27.47;21.13;;;4.40;45.70;;;;;;10492094;28;20228;-69
2022/01/16 08:51:05;;;;;;;24.13;20.00;;;4.40;45.60;;;;;;10491154;28;20256;-69
2022/01/16 08:56:08;;;;;;;27.97;21.63;;;4.50;45.80;;;;;;10488736;28;20227;-69
2022/01/16 09:01:13;;;;;;;27.23;21.27;;;4.50;45.60;;;;;;10493686;28;20601;-69
2022/01/16 09:06:19;;;;;;;27.33;20.93;;;4.50;45.60;;;;;;10494446;28;20255;-69
2022/01/16 09:11:25;;;;;;;28.20;22.93;;;4.60;45.70;;;;;;10492975;28;20236;-66
2022/01/16 09:16:30;;;;;;;31.77;25.37;;;4.60;45.60;;;;;;10498192;28;20220;-66
2022/01/16 09:21:33;;;;;;;29.00;23.67;;;4.60;46.40;;;;;;10499584;28;20255;-67
2022/01/16 09:26:37;;;;;;;28.90;23.20;;;4.50;45.60;;;;;;10501894;28;20228;-67
2022/01/16 09:31:41;;;;;;;25.27;21.80;;;4.50;45.70;;;;;;10501371;28;20237;-67
2022/01/16 09:36:45;;;;;;;27.13;22.77;;;4.50;45.70;;;;;;10499510;28;20232;-69
2022/01/16 09:41:48;;;;;;;27.23;22.67;;;4.60;45.60;;;;;;10502898;28;20223;-69
2022/01/16 09:46:52;;;;;;;28.23;22.00;;;4.70;45.80;;;;;;10502207;28;20229;-69
2022/01/16 09:51:56;;;;;;;28.20;23.03;;;4.60;45.80;;;;;;10502596;28;20658;-69
2022/01/16 09:56:59;;;;;;;28.63;24.13;;;4.60;45.60;;;;;;10501756;28;20509;-69
2022/01/16 10:02:04;;;;;;;31.30;25.33;;;4.70;45.70;;;;;;10501724;28;20220;-68
2022/01/16 10:07:09;;;;;;;31.83;24.67;;;4.60;45.60;;;;;;10500042;28;20232;-69
2022/01/16 10:12:17;;;;;;;28.93;24.57;;;4.60;45.90;;;;;;10502174;28;20224;-69
2022/01/16 10:17:22;;;;;;;27.20;21.93;;;4.60;45.80;;;;;;10499203;28;20242;-70
2022/01/16 10:22:38;;;;;;;26.97;21.83;;;4.60;45.80;;;;;;10495130;28;20215;-70
2022/01/16 10:27:43;;;;;;;28.03;21.03;;;4.60;45.80;;;;;;10506864;28;20226;-70
2022/01/16 10:32:48;;;;;;;25.23;21.17;;;4.70;45.70;;;;;;10506330;28;20223;-71
2022/01/16 10:37:53;;;;;;;27.00;22.23;;;4.70;45.90;;;;;;10504383;28;20231;-70
2022/01/16 10:43:03;;;;;;;26.37;21.77;;;4.80;45.70;;;;;;10501245;28;20227;-70
2022/01/16 10:48:12;;;;;;;26.77;21.70;;;4.80;45.80;;;;;;10500185;28;20228;-70
2022/01/16 10:53:18;;;;;;;25.50;20.37;;;4.90;45.90;;;;;;10500486;28;20240;-72
2022/01/16 10:58:25;;;;;;;26.97;22.00;;;4.90;45.90;;;;;;10488325;28;21053;-72
2022/01/16 11:03:37;;;;;;;23.93;20.40;;;5.00;46.30;;;;;;10485270;28;20604;-69
2022/01/16 11:08:43;;;;;;;25.10;20.47;;;5.10;46.30;;;;;;10484939;28;20885;-71
2022/01/16 11:13:46;;;;;;;24.87;20.40;;;5.40;46.30;;;;;;10487120;28;20232;-70
2022/01/16 11:18:51;;;;;;;29.23;23.30;;;5.50;46.10;;;;;;10489025;28;20231;-71
2022/01/16 11:24:12;;;;;;;26.40;21.93;;;5.60;45.40;;;;;;10485493;28;20485;-71
2022/01/16 11:29:16;;;;;;;26.50;21.90;;;5.70;45.30;;;;;;10482889;28;20224;-70
2022/01/16 11:34:20;;;;;;;26.23;21.73;;;5.70;44.60;;;;;;10479220;28;20223;-71
2022/01/16 11:39:33;;;;;;;29.63;22.77;;;5.70;44.50;;;;;;10498121;28;20230;-70
2022/01/16 11:44:36;;;;;;;28.23;23.67;;;5.60;44.50;;;;;;10503621;28;20573;-69
2022/01/16 11:49:42;;;;;;;28.90;22.80;;;5.60;44.60;;;;;;10505797;28;20625;-72
2022/01/16 11:54:47;;;;;;;27.37;23.23;;;5.50;44.30;;;;;;10506657;28;20273;-72
2022/01/16 11:59:54;;;;;;;28.40;24.23;;;5.50;44.60;;;;;;10509642;28;20220;-72
2022/01/16 12:05:04;;;;;;;26.83;21.83;;;5.40;44.40;;;;;;10506346;28;20730;-72
2022/01/16 12:10:07;;;;;;;28.07;22.73;;;5.40;44.50;;;;;;10501867;28;20232;-72
2022/01/16 12:15:19;;;;;;;27.57;22.57;;;5.40;44.70;;;;;;10506617;28;20239;-72
2022/01/16 12:20:26;;;;;;;28.97;22.33;;;5.40;43.80;;;;;;10504659;28;20250;-72
2022/01/16 12:25:32;;;;;;;26.70;21.57;;;5.30;43.80;;;;;;10503641;28;20224;-72
2022/01/16 12:30:38;;;;;;;26.53;21.57;;;5.30;44.30;;;;;;10503026;28;20224;-72
2022/01/16 12:36:13;;;;;;;25.23;21.13;;;5.30;44.30;;;;;;10497893;28;20231;-72
2022/01/16 12:41:19;;;;;;;27.27;22.50;;;5.30;44.30;;;;;;10495534;28;20658;-72
2022/01/16 12:46:25;;;;;;;25.77;22.20;;;5.30;44.30;;;;;;10502610;28;20247;-72
2022/01/16 12:51:32;;;;;;;24.57;20.63;;;5.30;44.20;;;;;;10490449;28;20298;-72
2022/01/16 12:56:38;;;;;;;23.80;19.93;;;5.30;44.50;;;;;;10495914;28;20223;-73
2022/01/16 13:01:51;;;;;;;26.10;21.90;;;5.40;44.60;;;;;;10501293;28;20220;-70
2022/01/16 13:06:57;;;;;;;25.20;20.53;;;5.50;44.30;;;;;;10502445;28;20255;-70
2022/01/16 13:12:02;;;;;;;24.80;20.53;;;5.50;44.50;;;;;;10496416;28;20306;-70
2022/01/16 13:17:08;;;;;;;27.73;23.87;;;5.50;44.30;;;;;;10502481;28;20715;-70
2022/01/16 13:22:15;;;;;;;27.53;22.50;;;5.60;44.10;;;;;;10497695;28;20220;-70
2022/01/16 13:27:20;;;;;;;25.60;20.90;;;5.50;45.10;;;;;;10499279;28;20234;-70
2022/01/16 13:32:28;;;;;;;25.93;22.00;;;5.60;44.50;;;;;;10503063;28;20585;-70
2022/01/16 13:37:39;;;;;;;25.77;21.13;;;5.50;44.40;;;;;;10499846;28;20725;-70
2022/01/16 13:42:51;;;;;;;25.27;20.80;;;5.50;44.50;;;;;;10500044;28;20750;-71
2022/01/16 13:48:06;;;;;;;24.97;19.83;;;5.60;44.60;;;;;;10504255;28;20231;-70
2022/01/16 13:53:13;;;;;;;24.90;20.40;;;5.60;44.50;;;;;;10499213;28;20219;-71
2022/01/16 13:58:18;;;;;;;27.73;21.77;;;5.60;44.50;;;;;;10500613;28;21032;-71
2022/01/16 14:03:23;;;;;;;26.30;20.53;;;5.60;44.40;;;;;;10495568;28;20235;-72
2022/01/16 14:08:35;;;;;;;25.83;20.33;;;5.50;44.50;;;;;;10494594;22;20233;-74
2022/01/16 14:13:51;;;;;;;23.90;19.43;;;5.40;44.50;;;;;;10428408;28;20228;-74
2022/01/16 14:19:06;;;;;;;24.70;20.13;;;5.40;44.40;;;;;;10405540;28;20639;-74
2022/01/16 14:24:12;;;;;;;26.43;20.73;;;5.40;44.50;;;;;;10400926;28;20220;-75
2022/01/16 14:29:16;;;;;;;26.13;20.30;;;5.30;44.30;;;;;;10393019;28;20593;-75
2022/01/16 14:34:21;;;;;;;23.37;18.80;;;5.30;44.50;;;;;;10395462;28;20225;-76
2022/01/16 14:39:26;;;;;;;22.13;17.87;;;5.30;44.70;;;;;;10393447;28;20234;-75
2022/01/16 14:44:41;;;;;;;23.80;17.87;;;5.30;44.70;;;;;;10387813;28;20241;-74
2022/01/16 14:49:47;;;;;;;22.10;17.70;;;5.30;44.90;;;;;;10389883;28;20671;-76
2022/01/16 14:54:55;;;;;;;24.63;19.73;;;5.40;44.70;;;;;;10395000;28;20228;-76
2022/01/16 14:59:58;;;;;;;24.53;19.07;;;5.40;44.60;;;;;;10390127;28;20839;-76
2022/01/16 15:05:03;;;;;;;23.90;18.97;;;5.40;44.60;;;;;;10400568;28;20675;-75
2022/01/16 15:10:10;;;;;;;23.73;19.13;;;5.40;44.70;;;;;;10436306;28;20221;-74
2022/01/16 15:15:14;;;;;;;26.50;20.47;;;5.40;44.70;;;;;;10444440;28;20700;-77
2022/01/16 15:20:28;;;;;;;27.40;21.33;;;5.30;44.70;;;;;;10442769;28;20259;-76
2022/01/16 15:25:36;;;;;;;23.60;19.23;;;5.30;44.70;;;;;;10445317;28;20311;-76
2022/01/16 15:30:39;;;;;;;22.30;18.73;;;5.30;44.80;;;;;;10442168;28;20228;-77
2022/01/16 15:35:46;;;;;;;26.20;20.70;;;5.30;44.70;;;;;;10448030;28;20270;-77
2022/01/16 15:40:50;;;;;;;25.70;19.80;;;5.40;44.90;;;;;;10447459;28;20316;-77
2022/01/16 15:45:55;;;;;;;23.77;19.73;;;5.30;44.70;;;;;;10447854;28;20581;-77
2022/01/16 15:50:58;;;;;;;24.53;19.73;;;5.40;44.90;;;;;;10449908;28;20229;-76
2022/01/16 15:56:23;;;;;;;25.67;21.53;;;5.40;44.80;;;;;;10441860;28;20236;-78
2022/01/16 16:01:26;;;;;;;23.40;18.97;;;5.40;44.70;;;;;;10446665;28;20225;-75
2022/01/16 16:06:31;;;;;;;21.73;18.57;;;5.40;45.40;;;;;;10444021;28;20229;-76
2022/01/16 16:11:36;;;;;;;21.27;17.67;;;5.40;44.80;;;;;;10443223;28;20249;-75
2022/01/16 16:16:39;;;;;;;19.80;16.70;;;5.40;44.70;;;;;;10442366;28;20225;-75
2022/01/16 16:21:42;;;;;;;18.00;15.73;;;5.50;44.70;;;;;;10436284;28;20692;-76
2022/01/16 16:26:48;;;;;;;17.13;15.10;;;5.50;44.50;;;;;;10440545;28;20257;-76
2022/01/16 16:31:51;;;;;;;17.13;14.73;;;5.50;44.50;;;;;;10439690;28;20224;-75
2022/01/16 16:36:55;;;;;;;15.97;14.27;;;5.50;44.50;;;;;;10439408;28;20221;-76
2022/01/16 16:41:59;;;;;;;17.97;16.07;;;5.50;44.50;;;;;;10442193;28;20224;-77
2022/01/16 16:47:05;;;;;;;14.87;13.27;;;5.50;44.60;;;;;;10441894;28;20221;-75
2022/01/16 16:52:09;;;;;;;15.50;13.80;;;5.60;45.40;;;;;;10435984;28;20229;-75
2022/01/16 16:57:16;;;;;;;14.87;12.83;;;5.60;44.60;;;;;;10440670;28;20225;-76
2022/01/16 17:02:20;;;;;;;15.07;13.47;;;5.60;44.50;;;;;;10441100;28;20238;-75
2022/01/16 17:07:23;;;;;;;14.23;12.73;;;5.60;44.50;;;;;;10439343;28;20698;-75
2022/01/16 17:12:27;;;;;;;13.33;11.90;;;5.70;44.60;;;;;;10434931;28;20228;-75
2022/01/16 17:17:31;;;;;;;13.83;12.00;;;5.70;44.50;;;;;;10440240;28;20232;-75
2022/01/16 17:22:34;;;;;;;13.93;12.43;;;5.80;44.60;;;;;;10441184;28;20438;-75
2022/01/16 17:27:38;;;;;;;13.30;11.93;;;5.80;44.60;;;;;;10437635;28;20231;-75
2022/01/16 17:32:42;;;;;;;13.67;12.27;;;5.80;44.50;;;;;;10437486;28;20221;-75
2022/01/16 17:37:45;;;;;;;12.63;11.33;;;5.80;44.40;;;;;;10434765;28;20240;-76
2022/01/16 17:42:50;;;;;;;12.43;11.13;;;5.80;44.50;;;;;;10435856;28;20621;-75
2022/01/16 17:47:53;;;;;;;13.27;11.80;;;5.80;44.30;;;;;;10436116;28;20233;-77
2022/01/16 17:52:56;;;;;;;13.20;11.80;;;5.80;44.30;;;;;;10430069;28;20221;-75
2022/01/16 17:58:01;;;;;;;12.73;11.43;;;5.90;44.40;;;;;;10428994;28;20249;-77
2022/01/16 18:03:04;;;;;;;13.47;11.17;;;5.90;44.30;;;;;;10441802;28;21112;-75
2022/01/16 18:08:07;;;;;;;14.40;12.67;;;5.90;44.30;;;;;;10435548;28;20599;-76
2022/01/16 18:13:12;;;;;;;14.57;12.20;;;5.90;44.40;;;;;;10435341;28;20758;-75
2022/01/16 18:18:31;;;;;;;14.13;12.33;;;5.90;44.30;;;;;;10436232;28;20237;-75
2022/01/16 18:23:34;;;;;;;15.40;13.53;;;6.00;44.50;;;;;;10442723;28;20248;-74
2022/01/16 18:28:42;;;;;;;14.93;13.43;;;6.00;44.40;;;;;;10435151;28;20229;-76
2022/01/16 18:33:45;;;;;;;16.17;14.47;;;6.00;44.40;;;;;;10443003;28;20223;-75
2022/01/16 18:38:49;;;;;;;15.97;14.27;;;6.00;44.50;;;;;;10438851;28;20232;-75
2022/01/16 18:43:54;;;;;;;15.57;13.90;;;6.00;44.50;;;;;;10445697;28;20221;-75
2022/01/16 18:48:58;;;;;;;16.07;13.77;;;6.00;44.40;;;;;;10470094;23;20227;-67
2022/01/16 18:54:01;;;;;;;17.63;14.97;;;6.00;44.40;;;;;;10396234;28;20222;-70
2022/01/16 18:59:07;;;;;;;16.27;14.60;;;6.00;44.40;;;;;;10412085;23;20501;-72
2022/01/16 19:04:12;;;;;;;17.07;15.23;;;6.10;44.40;;;;;;10369137;28;20231;-72
2022/01/16 19:09:15;;;;;;;16.67;14.97;;;6.10;44.50;;;;;;10381239;28;22324;-72
2022/01/16 19:14:20;;;;;;;16.10;14.50;;;6.10;44.40;;;;;;10387639;28;20240;-72
2022/01/16 19:19:24;;;;;;;14.50;13.03;;;6.10;44.30;;;;;;10387306;28;20235;-72
2022/01/16 19:24:27;;;;;;;14.23;12.83;;;6.10;44.30;;;;;;10387196;28;20252;-72
2022/01/16 19:29:32;;;;;;;14.73;13.17;;;6.20;44.20;;;;;;10378339;28;20346;-73
2022/01/16 19:34:35;;;;;;;13.83;12.43;;;6.20;44.10;;;;;;10381130;28;20218;-72
2022/01/16 19:39:39;;;;;;;14.37;12.87;;;6.20;44.20;;;;;;10376833;28;20229;-73
2022/01/16 19:44:44;;;;;;;14.73;13.23;;;6.20;44.10;;;;;;10376340;28;20244;-72
2022/01/16 19:49:47;;;;;;;14.97;12.83;;;6.20;43.90;;;;;;10384027;28;20228;-72
2022/01/16 19:54:50;;;;;;;14.03;12.03;;;6.20;44.10;;;;;;10380687;28;20222;-72
2022/01/16 19:59:55;;;;;;;13.63;12.23;;;6.20;43.90;;;;;;10382678;28;20222;-72
2022/01/16 20:04:58;;;;;;;13.03;11.53;;;6.20;43.70;;;;;;10383009;28;20713;-72
2022/01/16 20:10:03;;;;;;;12.80;11.00;;;6.20;43.70;;;;;;10376769;28;20635;-70
2022/01/16 20:15:15;;;;;;;11.83;9.97;;;6.20;43.70;;;;;;10381252;28;20593;-69
2022/01/16 20:20:24;;;;;;;11.23;10.03;;;6.20;43.70;;;;;;10376343;28;20234;-70
2022/01/16 20:25:28;;;;;;;11.23;10.13;;;6.20;43.70;;;;;;10383228;28;20226;-70
2022/01/16 20:30:33;;;;;;;11.67;10.43;;;6.30;43.80;;;;;;10380696;28;20232;-69
2022/01/16 20:35:37;;;;;;;10.77;9.67;;;6.30;43.70;;;;;;10383745;28;20230;-70
2022/01/16 20:40:47;;;;;;;10.70;9.60;;;6.30;43.80;;;;;;10378724;28;20776;-69
2022/01/16 20:45:54;;;;;;;12.03;9.57;;;6.40;43.60;;;;;;10376623;28;20222;-69
2022/01/16 20:51:00;;;;;;;10.33;9.27;;;6.40;43.60;;;;;;10382172;28;20259;-70
2022/01/16 20:56:03;;;;;;;10.77;9.60;;;6.40;43.50;;;;;;10376784;28;20218;-70
2022/01/16 21:01:09;;;;;;;10.60;9.37;;;6.30;43.50;;;;;;10376741;28;20583;-69
2022/01/16 21:06:13;;;;;;;9.90;8.97;;;6.40;43.30;;;;;;10375093;28;20222;-70
2022/01/16 21:11:16;;;;;;;10.17;9.07;;;6.40;43.50;;;;;;10375182;28;20238;-69
2022/01/16 21:16:21;;;;;;;10.70;9.60;;;6.40;43.40;;;;;;10378522;28;20234;-69
2022/01/16 21:21:25;;;;;;;10.93;9.57;;;6.30;43.30;;;;;;10374920;28;20230;-70
2022/01/16 21:26:29;;;;;;;9.60;8.70;;;6.30;43.50;;;;;;10375114;28;20230;-70
2022/01/16 21:31:34;;;;;;;10.37;8.67;;;6.30;43.60;;;;;;10375071;28;21720;-70
2022/01/16 21:36:40;;;;;;;8.97;8.07;;;6.30;43.40;;;;;;10374746;28;20225;-70
2022/01/16 21:41:44;;;;;;;8.97;8.17;;;6.30;43.70;;;;;;10373632;28;20226;-70
2022/01/16 21:46:48;;;;;;;8.87;7.83;;;6.30;43.80;;;;;;10379800;28;20237;-70
2022/01/16 21:51:52;;;;;;;8.67;7.77;;;6.40;43.60;;;;;;10378034;28;20753;-70
2022/01/16 21:56:55;;;;;;;9.30;8.37;;;6.40;43.70;;;;;;10369318;28;20930;-70
2022/01/16 22:01:59;;;;;;;8.33;7.53;;;6.50;43.60;;;;;;10375101;28;20236;-73
2022/01/16 22:07:03;;;;;;;9.37;8.30;;;6.50;43.40;;;;;;10383579;28;20305;-72
2022/01/16 22:12:10;;;;;;;8.83;7.97;;;6.60;43.50;;;;;;10378237;28;20240;-73
2022/01/16 22:17:15;;;;;;;8.93;8.03;;;6.60;43.50;;;;;;10372330;28;20215;-73
2022/01/16 22:22:19;;;;;;;9.37;8.40;;;6.60;43.40;;;;;;10370441;28;20237;-73
2022/01/16 22:27:23;;;;;;;9.70;8.70;;;6.60;43.40;;;;;;10374760;28;20225;-69
2022/01/16 22:32:28;;;;;;;9.90;8.90;;;6.50;43.40;;;;;;10376725;28;20221;-69
2022/01/16 22:37:31;;;;;;;9.87;8.97;;;6.50;43.30;;;;;;10377427;28;20241;-70
2022/01/16 22:42:34;;;;;;;10.30;9.30;;;6.50;43.70;;;;;;10379190;28;20248;-70
2022/01/16 22:47:39;;;;;;;10.30;9.27;;;6.50;43.70;;;;;;10375446;28;20620;-70
2022/01/16 22:52:42;;;;;;;9.90;8.90;;;6.50;43.70;;;;;;10375168;28;20759;-70
2022/01/16 22:57:46;;;;;;;8.73;7.93;;;6.50;43.80;;;;;;10377551;28;20230;-70
2022/01/16 23:02:51;;;;;;;9.53;8.60;;;6.40;43.80;;;;;;10376446;28;20312;-70
2022/01/16 23:07:54;;;;;;;9.13;8.33;;;6.50;43.80;;;;;;10379771;28;20221;-70
2022/01/16 23:12:58;;;;;;;9.03;8.13;;;6.40;43.80;;;;;;10378897;28;20721;-70
2022/01/16 23:18:02;;;;;;;9.07;8.17;;;6.50;44.60;;;;;;10377232;28;20589;-70
2022/01/16 23:23:06;;;;;;;10.00;9.00;;;6.40;43.90;;;;;;10375028;28;20222;-70
2022/01/16 23:28:09;;;;;;;9.50;8.60;;;6.40;43.90;;;;;;10374241;28;20956;-70
2022/01/16 23:33:13;;;;;;;9.67;8.77;;;6.40;43.90;;;;;;10374027;28;20736;-70
2022/01/16 23:38:19;;;;;;;9.87;8.90;;;6.30;43.80;;;;;;10382060;28;20559;-70
2022/01/16 23:43:22;;;;;;;10.47;9.37;;;6.30;44.00;;;;;;10385070;28;20234;-70
2022/01/16 23:48:27;;;;;;;9.43;8.53;;;6.30;44.20;;;;;;10382494;28;20235;-70
2022/01/16 23:53:31;;;;;;;10.20;9.20;;;6.30;44.20;;;;;;10384830;28;20233;-70
2022/01/16 23:58:36;;;;;;;10.40;9.37;;;6.20;44.20;;;;;;10388353;28;20593;-70
